sensor_id;sensor_type;location;lat;lon;timestamp;P1;durP1;ratioP1;P2;durP2;ratioP2
52642;SDS011;38531;53.296;6.614;2022-11-23T00:01:48;4.03;;;2.80;;
52642;SDS011;38531;53.296;6.614;2022-11-23T00:04:14;4.18;;;2.80;;
52642;SDS011;38531;53.296;6.614;2022-11-23T00:06:40;4.07;;;3.03;;
52642;SDS011;38531;53.296;6.614;2022-11-23T00:09:05;4.10;;;2.70;;
52642;SDS011;38531;53.296;6.614;2022-11-23T00:11:32;5.32;;;3.80;;
52642;SDS011;38531;53.296;6.614;2022-11-23T00:13:59;4.95;;;3.35;;
52642;SDS011;38531;53.296;6.614;2022-11-23T00:16:26;6.28;;;2.78;;
52642;SDS011;38531;53.296;6.614;2022-11-23T00:18:53;5.05;;;2.80;;
52642;SDS011;38531;53.296;6.614;2022-11-23T00:21:20;4.45;;;2.55;;
52642;SDS011;38531;53.296;6.614;2022-11-23T00:23:47;4.68;;;3.08;;
52642;SDS011;38531;53.296;6.614;2022-11-23T00:26:14;3.85;;;2.80;;
52642;SDS011;38531;53.296;6.614;2022-11-23T00:28:40;4.95;;;3.03;;
52642;SDS011;38531;53.296;6.614;2022-11-23T00:31:06;5.10;;;3.55;;
52642;SDS011;38531;53.296;6.614;2022-11-23T00:33:33;3.78;;;2.53;;
52642;SDS011;38531;53.296;6.614;2022-11-23T00:38:30;5.55;;;3.58;;
52642;SDS011;38531;53.296;6.614;2022-11-23T00:40:56;5.88;;;3.53;;
52642;SDS011;38531;53.296;6.614;2022-11-23T00:43:27;4.63;;;3.30;;
52642;SDS011;38531;53.296;6.614;2022-11-23T00:48:39;6.82;;;4.07;;
52642;SDS011;38531;53.296;6.614;2022-11-23T00:51:06;5.85;;;4.07;;
52642;SDS011;38531;53.296;6.614;2022-11-23T00:53:33;4.45;;;2.78;;
52642;SDS011;38531;53.296;6.614;2022-11-23T00:56:00;6.20;;;3.60;;
52642;SDS011;38531;53.296;6.614;2022-11-23T00:58:26;4.82;;;3.25;;
52642;SDS011;38531;53.296;6.614;2022-11-23T01:00:59;5.43;;;3.10;;
52642;SDS011;38531;53.296;6.614;2022-11-23T01:03:27;4.05;;;2.95;;
52642;SDS011;38531;53.296;6.614;2022-11-23T01:05:53;7.05;;;3.22;;
52642;SDS011;38531;53.296;6.614;2022-11-23T01:08:18;4.22;;;3.00;;
52642;SDS011;38531;53.296;6.614;2022-11-23T01:10:44;3.63;;;2.63;;
52642;SDS011;38531;53.296;6.614;2022-11-23T01:13:10;5.20;;;2.95;;
52642;SDS011;38531;53.296;6.614;2022-11-23T01:15:35;4.43;;;3.00;;
52642;SDS011;38531;53.296;6.614;2022-11-23T01:18:01;6.13;;;2.97;;
52642;SDS011;38531;53.296;6.614;2022-11-23T01:20:27;3.40;;;2.50;;
52642;SDS011;38531;53.296;6.614;2022-11-23T01:22:52;5.13;;;3.17;;
52642;SDS011;38531;53.296;6.614;2022-11-23T01:25:18;4.72;;;2.75;;
52642;SDS011;38531;53.296;6.614;2022-11-23T01:27:43;3.80;;;2.70;;
52642;SDS011;38531;53.296;6.614;2022-11-23T01:30:09;4.75;;;2.63;;
52642;SDS011;38531;53.296;6.614;2022-11-23T01:32:35;4.40;;;2.92;;
52642;SDS011;38531;53.296;6.614;2022-11-23T01:35:01;3.08;;;2.50;;
52642;SDS011;38531;53.296;6.614;2022-11-23T01:37:27;3.35;;;2.50;;
52642;SDS011;38531;53.296;6.614;2022-11-23T01:39:52;3.55;;;2.45;;
52642;SDS011;38531;53.296;6.614;2022-11-23T01:42:18;3.55;;;2.60;;
52642;SDS011;38531;53.296;6.614;2022-11-23T01:44:43;4.32;;;2.85;;
52642;SDS011;38531;53.296;6.614;2022-11-23T01:47:09;3.28;;;2.20;;
52642;SDS011;38531;53.296;6.614;2022-11-23T01:49:42;4.15;;;2.88;;
52642;SDS011;38531;53.296;6.614;2022-11-23T01:52:13;5.30;;;2.65;;
52642;SDS011;38531;53.296;6.614;2022-11-23T01:54:45;4.70;;;2.85;;
52642;SDS011;38531;53.296;6.614;2022-11-23T01:57:22;3.78;;;2.63;;
52642;SDS011;38531;53.296;6.614;2022-11-23T01:59:52;3.85;;;1.88;;
52642;SDS011;38531;53.296;6.614;2022-11-23T02:02:19;4.05;;;2.42;;
52642;SDS011;38531;53.296;6.614;2022-11-23T02:04:45;4.75;;;2.47;;
52642;SDS011;38531;53.296;6.614;2022-11-23T02:07:13;4.28;;;2.63;;
52642;SDS011;38531;53.296;6.614;2022-11-23T02:09:41;4.97;;;3.45;;
52642;SDS011;38531;53.296;6.614;2022-11-23T02:12:11;4.72;;;3.03;;
52642;SDS011;38531;53.296;6.614;2022-11-23T02:14:37;3.92;;;2.42;;
52642;SDS011;38531;53.296;6.614;2022-11-23T02:17:03;6.93;;;2.42;;
52642;SDS011;38531;53.296;6.614;2022-11-23T02:22:01;4.40;;;3.10;;
52642;SDS011;38531;53.296;6.614;2022-11-23T02:24:35;5.75;;;3.75;;
52642;SDS011;38531;53.296;6.614;2022-11-23T02:27:06;6.97;;;3.75;;
52642;SDS011;38531;53.296;6.614;2022-11-23T02:29:32;5.20;;;3.72;;
52642;SDS011;38531;53.296;6.614;2022-11-23T02:31:59;6.05;;;3.25;;
52642;SDS011;38531;53.296;6.614;2022-11-23T02:34:24;4.93;;;3.28;;
52642;SDS011;38531;53.296;6.614;2022-11-23T02:36:50;5.47;;;3.35;;
52642;SDS011;38531;53.296;6.614;2022-11-23T02:39:35;3.47;;;2.65;;
52642;SDS011;38531;53.296;6.614;2022-11-23T02:42:04;4.70;;;3.58;;
52642;SDS011;38531;53.296;6.614;2022-11-23T02:47:00;4.43;;;2.40;;
52642;SDS011;38531;53.296;6.614;2022-11-23T02:49:26;4.47;;;2.63;;
52642;SDS011;38531;53.296;6.614;2022-11-23T02:51:52;5.20;;;2.63;;
52642;SDS011;38531;53.296;6.614;2022-11-23T02:54:18;4.15;;;2.80;;
52642;SDS011;38531;53.296;6.614;2022-11-23T02:56:43;5.18;;;2.72;;
52642;SDS011;38531;53.296;6.614;2022-11-23T02:59:09;4.00;;;2.17;;
52642;SDS011;38531;53.296;6.614;2022-11-23T03:01:35;3.22;;;2.28;;
52642;SDS011;38531;53.296;6.614;2022-11-23T03:04:03;4.00;;;2.13;;
52642;SDS011;38531;53.296;6.614;2022-11-23T03:06:29;4.45;;;2.13;;
52642;SDS011;38531;53.296;6.614;2022-11-23T03:08:55;2.97;;;1.90;;
52642;SDS011;38531;53.296;6.614;2022-11-23T03:11:21;2.90;;;2.13;;
52642;SDS011;38531;53.296;6.614;2022-11-23T03:13:46;3.65;;;2.20;;
52642;SDS011;38531;53.296;6.614;2022-11-23T03:16:12;3.42;;;2.22;;
52642;SDS011;38531;53.296;6.614;2022-11-23T03:18:37;3.03;;;2.17;;
52642;SDS011;38531;53.296;6.614;2022-11-23T03:21:03;3.45;;;2.00;;
52642;SDS011;38531;53.296;6.614;2022-11-23T03:23:32;2.45;;;1.55;;
52642;SDS011;38531;53.296;6.614;2022-11-23T03:25:59;3.92;;;1.70;;
52642;SDS011;38531;53.296;6.614;2022-11-23T03:28:24;4.93;;;1.80;;
52642;SDS011;38531;53.296;6.614;2022-11-23T03:30:50;3.47;;;1.80;;
52642;SDS011;38531;53.296;6.614;2022-11-23T03:33:16;2.67;;;1.70;;
52642;SDS011;38531;53.296;6.614;2022-11-23T03:35:42;2.13;;;1.38;;
52642;SDS011;38531;53.296;6.614;2022-11-23T03:38:08;3.90;;;2.05;;
52642;SDS011;38531;53.296;6.614;2022-11-23T03:40:34;2.97;;;2.25;;
52642;SDS011;38531;53.296;6.614;2022-11-23T03:43:00;2.72;;;1.83;;
52642;SDS011;38531;53.296;6.614;2022-11-23T03:45:26;2.83;;;2.05;;
52642;SDS011;38531;53.296;6.614;2022-11-23T03:47:51;2.00;;;1.48;;
52642;SDS011;38531;53.296;6.614;2022-11-23T03:50:17;6.90;;;2.38;;
52642;SDS011;38531;53.296;6.614;2022-11-23T03:52:43;3.67;;;1.60;;
52642;SDS011;38531;53.296;6.614;2022-11-23T03:55:08;3.25;;;2.00;;
52642;SDS011;38531;53.296;6.614;2022-11-23T03:57:34;3.33;;;2.28;;
52642;SDS011;38531;53.296;6.614;2022-11-23T04:00:00;2.35;;;1.67;;
52642;SDS011;38531;53.296;6.614;2022-11-23T04:02:26;3.72;;;2.22;;
52642;SDS011;38531;53.296;6.614;2022-11-23T04:04:52;4.47;;;2.80;;
52642;SDS011;38531;53.296;6.614;2022-11-23T04:07:17;3.45;;;1.83;;
52642;SDS011;38531;53.296;6.614;2022-11-23T04:09:44;2.72;;;1.80;;
52642;SDS011;38531;53.296;6.614;2022-11-23T04:12:10;3.08;;;1.85;;
52642;SDS011;38531;53.296;6.614;2022-11-23T04:14:35;3.10;;;1.73;;
52642;SDS011;38531;53.296;6.614;2022-11-23T04:17:01;3.28;;;1.67;;
52642;SDS011;38531;53.296;6.614;2022-11-23T04:19:27;2.50;;;1.45;;
52642;SDS011;38531;53.296;6.614;2022-11-23T04:21:53;1.65;;;1.30;;
52642;SDS011;38531;53.296;6.614;2022-11-23T04:24:19;2.67;;;1.60;;
52642;SDS011;38531;53.296;6.614;2022-11-23T04:26:45;3.65;;;1.92;;
52642;SDS011;38531;53.296;6.614;2022-11-23T04:29:11;4.88;;;1.83;;
52642;SDS011;38531;53.296;6.614;2022-11-23T04:31:36;2.75;;;1.65;;
52642;SDS011;38531;53.296;6.614;2022-11-23T04:34:02;2.63;;;1.60;;
52642;SDS011;38531;53.296;6.614;2022-11-23T04:36:28;3.28;;;1.80;;
52642;SDS011;38531;53.296;6.614;2022-11-23T04:38:54;3.47;;;1.85;;
52642;SDS011;38531;53.296;6.614;2022-11-23T04:41:19;4.75;;;2.45;;
52642;SDS011;38531;53.296;6.614;2022-11-23T04:43:46;3.83;;;1.98;;
52642;SDS011;38531;53.296;6.614;2022-11-23T04:46:12;3.08;;;1.75;;
52642;SDS011;38531;53.296;6.614;2022-11-23T04:48:38;5.05;;;1.73;;
52642;SDS011;38531;53.296;6.614;2022-11-23T04:51:04;4.95;;;2.20;;
52642;SDS011;38531;53.296;6.614;2022-11-23T04:53:30;4.15;;;1.98;;
52642;SDS011;38531;53.296;6.614;2022-11-23T04:55:55;5.40;;;2.70;;
52642;SDS011;38531;53.296;6.614;2022-11-23T04:58:21;6.07;;;2.58;;
52642;SDS011;38531;53.296;6.614;2022-11-23T05:00:47;5.35;;;3.45;;
52642;SDS011;38531;53.296;6.614;2022-11-23T05:03:13;7.03;;;3.85;;
52642;SDS011;38531;53.296;6.614;2022-11-23T05:05:39;6.97;;;2.95;;
52642;SDS011;38531;53.296;6.614;2022-11-23T05:08:06;5.88;;;2.85;;
52642;SDS011;38531;53.296;6.614;2022-11-23T05:10:32;6.40;;;3.25;;
52642;SDS011;38531;53.296;6.614;2022-11-23T05:12:58;5.95;;;2.60;;
52642;SDS011;38531;53.296;6.614;2022-11-23T05:15:24;7.38;;;3.72;;
52642;SDS011;38531;53.296;6.614;2022-11-23T05:17:50;6.68;;;3.10;;
52642;SDS011;38531;53.296;6.614;2022-11-23T05:20:15;5.10;;;2.63;;
52642;SDS011;38531;53.296;6.614;2022-11-23T05:22:41;5.15;;;2.33;;
52642;SDS011;38531;53.296;6.614;2022-11-23T05:25:07;6.90;;;3.90;;
52642;SDS011;38531;53.296;6.614;2022-11-23T05:27:33;5.80;;;3.55;;
52642;SDS011;38531;53.296;6.614;2022-11-23T05:29:59;8.32;;;2.90;;
52642;SDS011;38531;53.296;6.614;2022-11-23T05:32:25;5.22;;;3.10;;
52642;SDS011;38531;53.296;6.614;2022-11-23T05:34:51;5.13;;;3.35;;
52642;SDS011;38531;53.296;6.614;2022-11-23T05:37:16;12.68;;;4.75;;
52642;SDS011;38531;53.296;6.614;2022-11-23T05:39:42;8.27;;;4.03;;
52642;SDS011;38531;53.296;6.614;2022-11-23T05:42:08;7.35;;;4.40;;
52642;SDS011;38531;53.296;6.614;2022-11-23T05:44:33;8.90;;;4.80;;
52642;SDS011;38531;53.296;6.614;2022-11-23T05:46:59;6.95;;;4.10;;
52642;SDS011;38531;53.296;6.614;2022-11-23T05:49:25;8.65;;;4.20;;
52642;SDS011;38531;53.296;6.614;2022-11-23T05:51:50;7.75;;;4.32;;
52642;SDS011;38531;53.296;6.614;2022-11-23T05:54:16;9.23;;;4.93;;
52642;SDS011;38531;53.296;6.614;2022-11-23T05:56:43;9.55;;;5.07;;
52642;SDS011;38531;53.296;6.614;2022-11-23T05:59:09;8.82;;;5.15;;
52642;SDS011;38531;53.296;6.614;2022-11-23T06:01:36;10.85;;;5.18;;
52642;SDS011;38531;53.296;6.614;2022-11-23T06:04:01;9.20;;;4.97;;
52642;SDS011;38531;53.296;6.614;2022-11-23T06:06:27;11.82;;;6.43;;
52642;SDS011;38531;53.296;6.614;2022-11-23T06:08:53;13.15;;;6.95;;
52642;SDS011;38531;53.296;6.614;2022-11-23T06:11:19;12.98;;;6.28;;
52642;SDS011;38531;53.296;6.614;2022-11-23T06:13:48;10.18;;;5.57;;
52642;SDS011;38531;53.296;6.614;2022-11-23T06:16:13;10.18;;;5.75;;
52642;SDS011;38531;53.296;6.614;2022-11-23T06:18:39;11.27;;;6.78;;
52642;SDS011;38531;53.296;6.614;2022-11-23T06:21:05;11.27;;;6.45;;
52642;SDS011;38531;53.296;6.614;2022-11-23T06:23:30;9.25;;;5.95;;
52642;SDS011;38531;53.296;6.614;2022-11-23T06:25:59;13.05;;;7.22;;
52642;SDS011;38531;53.296;6.614;2022-11-23T06:28:25;12.60;;;6.68;;
52642;SDS011;38531;53.296;6.614;2022-11-23T06:30:52;12.65;;;6.97;;
52642;SDS011;38531;53.296;6.614;2022-11-23T06:33:19;14.23;;;7.03;;
52642;SDS011;38531;53.296;6.614;2022-11-23T06:35:52;12.45;;;7.00;;
52642;SDS011;38531;53.296;6.614;2022-11-23T06:38:18;16.98;;;7.35;;
52642;SDS011;38531;53.296;6.614;2022-11-23T06:40:44;14.95;;;6.65;;
52642;SDS011;38531;53.296;6.614;2022-11-23T06:43:10;16.77;;;7.05;;
52642;SDS011;38531;53.296;6.614;2022-11-23T06:45:35;18.73;;;7.97;;
52642;SDS011;38531;53.296;6.614;2022-11-23T06:48:01;11.48;;;6.72;;
52642;SDS011;38531;53.296;6.614;2022-11-23T06:50:27;10.18;;;6.30;;
52642;SDS011;38531;53.296;6.614;2022-11-23T06:52:56;9.90;;;5.70;;
52642;SDS011;38531;53.296;6.614;2022-11-23T06:55:22;10.98;;;6.50;;
52642;SDS011;38531;53.296;6.614;2022-11-23T06:57:49;9.52;;;5.60;;
52642;SDS011;38531;53.296;6.614;2022-11-23T07:00:15;8.40;;;4.57;;
52642;SDS011;38531;53.296;6.614;2022-11-23T07:02:41;9.55;;;5.30;;
52642;SDS011;38531;53.296;6.614;2022-11-23T07:05:07;11.77;;;4.85;;
52642;SDS011;38531;53.296;6.614;2022-11-23T07:07:33;10.70;;;5.97;;
52642;SDS011;38531;53.296;6.614;2022-11-23T07:09:59;9.32;;;5.20;;
52642;SDS011;38531;53.296;6.614;2022-11-23T07:12:24;9.70;;;4.28;;
52642;SDS011;38531;53.296;6.614;2022-11-23T07:14:50;8.63;;;4.63;;
52642;SDS011;38531;53.296;6.614;2022-11-23T07:17:16;7.60;;;4.05;;
52642;SDS011;38531;53.296;6.614;2022-11-23T07:19:42;8.98;;;4.15;;
52642;SDS011;38531;53.296;6.614;2022-11-23T07:22:07;6.63;;;4.68;;
52642;SDS011;38531;53.296;6.614;2022-11-23T07:24:33;7.68;;;4.43;;
52642;SDS011;38531;53.296;6.614;2022-11-23T07:26:59;8.55;;;3.85;;
52642;SDS011;38531;53.296;6.614;2022-11-23T07:29:25;8.93;;;4.50;;
52642;SDS011;38531;53.296;6.614;2022-11-23T07:31:51;6.63;;;4.13;;
52642;SDS011;38531;53.296;6.614;2022-11-23T07:34:16;6.63;;;3.50;;
52642;SDS011;38531;53.296;6.614;2022-11-23T07:36:42;4.80;;;3.03;;
52642;SDS011;38531;53.296;6.614;2022-11-23T07:39:08;6.22;;;3.17;;
52642;SDS011;38531;53.296;6.614;2022-11-23T07:41:33;4.47;;;2.50;;
52642;SDS011;38531;53.296;6.614;2022-11-23T07:43:59;5.70;;;2.75;;
52642;SDS011;38531;53.296;6.614;2022-11-23T07:46:25;3.53;;;2.05;;
52642;SDS011;38531;53.296;6.614;2022-11-23T07:48:51;5.32;;;2.42;;
52642;SDS011;38531;53.296;6.614;2022-11-23T07:51:18;9.05;;;2.72;;
52642;SDS011;38531;53.296;6.614;2022-11-23T07:53:44;4.15;;;2.50;;
52642;SDS011;38531;53.296;6.614;2022-11-23T07:56:10;4.25;;;2.60;;
52642;SDS011;38531;53.296;6.614;2022-11-23T07:58:36;4.10;;;2.42;;
52642;SDS011;38531;53.296;6.614;2022-11-23T08:01:02;3.47;;;1.70;;
52642;SDS011;38531;53.296;6.614;2022-11-23T08:03:27;3.28;;;2.20;;
52642;SDS011;38531;53.296;6.614;2022-11-23T08:05:53;5.43;;;2.88;;
52642;SDS011;38531;53.296;6.614;2022-11-23T08:08:19;5.97;;;2.22;;
52642;SDS011;38531;53.296;6.614;2022-11-23T08:10:45;4.38;;;1.95;;
52642;SDS011;38531;53.296;6.614;2022-11-23T08:13:10;3.33;;;1.95;;
52642;SDS011;38531;53.296;6.614;2022-11-23T08:15:36;3.33;;;2.05;;
52642;SDS011;38531;53.296;6.614;2022-11-23T08:18:02;3.13;;;1.80;;
52642;SDS011;38531;53.296;6.614;2022-11-23T08:20:28;6.70;;;2.10;;
52642;SDS011;38531;53.296;6.614;2022-11-23T08:22:55;3.78;;;1.75;;
52642;SDS011;38531;53.296;6.614;2022-11-23T08:25:22;3.55;;;1.95;;
52642;SDS011;38531;53.296;6.614;2022-11-23T08:27:56;3.25;;;1.70;;
52642;SDS011;38531;53.296;6.614;2022-11-23T08:30:23;4.25;;;2.10;;
52642;SDS011;38531;53.296;6.614;2022-11-23T08:32:49;3.67;;;1.70;;
52642;SDS011;38531;53.296;6.614;2022-11-23T08:35:15;2.72;;;1.80;;
52642;SDS011;38531;53.296;6.614;2022-11-23T08:37:41;4.30;;;2.35;;
52642;SDS011;38531;53.296;6.614;2022-11-23T08:40:07;3.05;;;1.77;;
52642;SDS011;38531;53.296;6.614;2022-11-23T08:42:37;7.15;;;1.83;;
52642;SDS011;38531;53.296;6.614;2022-11-23T08:45:03;6.13;;;2.10;;
52642;SDS011;38531;53.296;6.614;2022-11-23T08:47:30;3.47;;;1.90;;
52642;SDS011;38531;53.296;6.614;2022-11-23T08:49:57;4.15;;;1.80;;
52642;SDS011;38531;53.296;6.614;2022-11-23T08:52:23;4.03;;;1.70;;
52642;SDS011;38531;53.296;6.614;2022-11-23T08:54:49;3.13;;;1.50;;
52642;SDS011;38531;53.296;6.614;2022-11-23T08:57:15;4.55;;;1.73;;
52642;SDS011;38531;53.296;6.614;2022-11-23T08:59:41;3.50;;;2.10;;
52642;SDS011;38531;53.296;6.614;2022-11-23T09:02:09;6.18;;;2.08;;
52642;SDS011;38531;53.296;6.614;2022-11-23T09:04:38;2.60;;;1.38;;
52642;SDS011;38531;53.296;6.614;2022-11-23T09:07:05;2.97;;;1.38;;
52642;SDS011;38531;53.296;6.614;2022-11-23T09:09:31;4.60;;;1.38;;
52642;SDS011;38531;53.296;6.614;2022-11-23T09:11:56;3.35;;;1.70;;
52642;SDS011;38531;53.296;6.614;2022-11-23T09:14:22;2.92;;;1.30;;
52642;SDS011;38531;53.296;6.614;2022-11-23T09:16:48;4.75;;;1.73;;
52642;SDS011;38531;53.296;6.614;2022-11-23T09:19:14;5.25;;;1.90;;
52642;SDS011;38531;53.296;6.614;2022-11-23T09:21:40;6.43;;;2.05;;
52642;SDS011;38531;53.296;6.614;2022-11-23T09:24:08;5.90;;;1.63;;
52642;SDS011;38531;53.296;6.614;2022-11-23T09:26:36;5.82;;;1.98;;
52642;SDS011;38531;53.296;6.614;2022-11-23T09:29:02;6.18;;;1.70;;
52642;SDS011;38531;53.296;6.614;2022-11-23T09:31:29;3.42;;;1.42;;
52642;SDS011;38531;53.296;6.614;2022-11-23T09:33:54;5.72;;;1.48;;
52642;SDS011;38531;53.296;6.614;2022-11-23T09:36:20;5.38;;;1.40;;
52642;SDS011;38531;53.296;6.614;2022-11-23T09:38:47;4.75;;;1.40;;
52642;SDS011;38531;53.296;6.614;2022-11-23T09:43:56;5.80;;;1.90;;
52642;SDS011;38531;53.296;6.614;2022-11-23T09:46:39;4.28;;;1.40;;
52642;SDS011;38531;53.296;6.614;2022-11-23T09:52:21;4.07;;;1.50;;
52642;SDS011;38531;53.296;6.614;2022-11-23T09:54:48;4.22;;;1.88;;
52642;SDS011;38531;53.296;6.614;2022-11-23T09:57:21;5.65;;;2.03;;
52642;SDS011;38531;53.296;6.614;2022-11-23T10:00:34;8.75;;;2.30;;
52642;SDS011;38531;53.296;6.614;2022-11-23T10:02:43;6.95;;;2.65;;
52642;SDS011;38531;53.296;6.614;2022-11-23T10:05:10;7.18;;;1.88;;
52642;SDS011;38531;53.296;6.614;2022-11-23T10:07:48;6.55;;;1.63;;
52642;SDS011;38531;53.296;6.614;2022-11-23T10:10:31;5.65;;;1.90;;
52642;SDS011;38531;53.296;6.614;2022-11-23T10:13:13;6.13;;;1.80;;
52642;SDS011;38531;53.296;6.614;2022-11-23T10:18:45;3.35;;;1.33;;
52642;SDS011;38531;53.296;6.614;2022-11-23T10:21:44;3.92;;;1.33;;
52642;SDS011;38531;53.296;6.614;2022-11-23T10:24:21;8.60;;;2.35;;
52642;SDS011;38531;53.296;6.614;2022-11-23T10:26:52;11.68;;;1.90;;
52642;SDS011;38531;53.296;6.614;2022-11-23T10:29:31;7.47;;;1.50;;
52642;SDS011;38531;53.296;6.614;2022-11-23T10:32:01;5.68;;;1.85;;
52642;SDS011;38531;53.296;6.614;2022-11-23T10:37:24;7.97;;;2.70;;
52642;SDS011;38531;53.296;6.614;2022-11-23T10:39:50;3.53;;;1.48;;
52642;SDS011;38531;53.296;6.614;2022-11-23T10:45:06;5.70;;;1.98;;
52642;SDS011;38531;53.296;6.614;2022-11-23T10:47:50;9.80;;;2.42;;
52642;SDS011;38531;53.296;6.614;2022-11-23T10:50:23;5.88;;;1.83;;
52642;SDS011;38531;53.296;6.614;2022-11-23T10:52:56;2.78;;;1.38;;
52642;SDS011;38531;53.296;6.614;2022-11-23T10:55:26;4.88;;;1.70;;
52642;SDS011;38531;53.296;6.614;2022-11-23T10:57:54;4.22;;;1.35;;
52642;SDS011;38531;53.296;6.614;2022-11-23T11:00:20;5.80;;;1.42;;
52642;SDS011;38531;53.296;6.614;2022-11-23T11:02:48;1.85;;;1.00;;
52642;SDS011;38531;53.296;6.614;2022-11-23T11:07:53;7.03;;;1.42;;
52642;SDS011;38531;53.296;6.614;2022-11-23T11:13:26;6.30;;;1.45;;
52642;SDS011;38531;53.296;6.614;2022-11-23T11:18:52;5.45;;;1.20;;
52642;SDS011;38531;53.296;6.614;2022-11-23T11:21:27;5.30;;;0.70;;
52642;SDS011;38531;53.296;6.614;2022-11-23T11:24:03;3.75;;;1.15;;
52642;SDS011;38531;53.296;6.614;2022-11-23T11:26:33;2.75;;;0.70;;
52642;SDS011;38531;53.296;6.614;2022-11-23T11:29:00;3.65;;;1.10;;
52642;SDS011;38531;53.296;6.614;2022-11-23T11:31:37;4.03;;;1.00;;
52642;SDS011;38531;53.296;6.614;2022-11-23T11:34:10;3.45;;;1.10;;
52642;SDS011;38531;53.296;6.614;2022-11-23T11:36:50;4.20;;;0.88;;
52642;SDS011;38531;53.296;6.614;2022-11-23T11:39:27;4.53;;;1.00;;
52642;SDS011;38531;53.296;6.614;2022-11-23T11:41:59;3.30;;;1.02;;
52642;SDS011;38531;53.296;6.614;2022-11-23T11:44:28;2.83;;;0.80;;
52642;SDS011;38531;53.296;6.614;2022-11-23T11:47:00;2.45;;;1.10;;
52642;SDS011;38531;53.296;6.614;2022-11-23T11:49:36;3.55;;;0.75;;
52642;SDS011;38531;53.296;6.614;2022-11-23T11:52:09;4.20;;;1.38;;
52642;SDS011;38531;53.296;6.614;2022-11-23T11:54:46;4.00;;;0.70;;
52642;SDS011;38531;53.296;6.614;2022-11-23T11:57:36;3.55;;;1.00;;
52642;SDS011;38531;53.296;6.614;2022-11-23T12:00:11;3.75;;;0.80;;
52642;SDS011;38531;53.296;6.614;2022-11-23T12:02:40;4.72;;;0.90;;
52642;SDS011;38531;53.296;6.614;2022-11-23T12:05:52;3.50;;;0.80;;
52642;SDS011;38531;53.296;6.614;2022-11-23T12:11:00;5.28;;;0.93;;
52642;SDS011;38531;53.296;6.614;2022-11-23T12:13:31;5.68;;;0.82;;
52642;SDS011;38531;53.296;6.614;2022-11-23T12:27:26;6.05;;;0.85;;
52642;SDS011;38531;53.296;6.614;2022-11-23T12:30:14;3.45;;;0.80;;
52642;SDS011;38531;53.296;6.614;2022-11-23T12:47:00;2.03;;;0.70;;
52642;SDS011;38531;53.296;6.614;2022-11-23T12:49:52;1.63;;;0.50;;
52642;SDS011;38531;53.296;6.614;2022-11-23T12:55:36;3.75;;;0.80;;
52642;SDS011;38531;53.296;6.614;2022-11-23T13:00:36;3.80;;;0.80;;
52642;SDS011;38531;53.296;6.614;2022-11-23T13:03:18;5.68;;;0.70;;
52642;SDS011;38531;53.296;6.614;2022-11-23T13:08:48;3.97;;;0.70;;
52642;SDS011;38531;53.296;6.614;2022-11-23T13:11:47;4.53;;;0.82;;
52642;SDS011;38531;53.296;6.614;2022-11-23T13:20:28;5.00;;;0.50;;
52642;SDS011;38531;53.296;6.614;2022-11-23T13:23:16;5.03;;;1.33;;
52642;SDS011;38531;53.296;6.614;2022-11-23T13:26:05;4.15;;;0.55;;
52642;SDS011;38531;53.296;6.614;2022-11-23T13:28:44;2.35;;;0.60;;
52642;SDS011;38531;53.296;6.614;2022-11-23T13:33:41;2.30;;;0.55;;
52642;SDS011;38531;53.296;6.614;2022-11-23T13:36:09;2.88;;;0.45;;
52642;SDS011;38531;53.296;6.614;2022-11-23T13:38:40;4.10;;;0.40;;
52642;SDS011;38531;53.296;6.614;2022-11-23T13:49:43;3.03;;;0.50;;
52642;SDS011;38531;53.296;6.614;2022-11-23T13:54:56;3.40;;;0.55;;
52642;SDS011;38531;53.296;6.614;2022-11-23T13:57:29;3.85;;;0.52;;
52642;SDS011;38531;53.296;6.614;2022-11-23T14:06:01;1.83;;;0.50;;
52642;SDS011;38531;53.296;6.614;2022-11-23T14:08:33;4.95;;;0.88;;
52642;SDS011;38531;53.296;6.614;2022-11-23T14:11:08;3.25;;;0.50;;
52642;SDS011;38531;53.296;6.614;2022-11-23T14:13:37;2.00;;;0.50;;
52642;SDS011;38531;53.296;6.614;2022-11-23T14:16:10;4.00;;;0.50;;
52642;SDS011;38531;53.296;6.614;2022-11-23T14:21:14;2.42;;;0.40;;
52642;SDS011;38531;53.296;6.614;2022-11-23T14:26:38;0.90;;;0.30;;
52642;SDS011;38531;53.296;6.614;2022-11-23T14:43:16;2.63;;;0.65;;
52642;SDS011;38531;53.296;6.614;2022-11-23T14:45:43;2.30;;;0.30;;
52642;SDS011;38531;53.296;6.614;2022-11-23T14:48:26;0.85;;;0.40;;
52642;SDS011;38531;53.296;6.614;2022-11-23T14:50:58;2.58;;;0.40;;
52642;SDS011;38531;53.296;6.614;2022-11-23T14:53:39;1.05;;;0.30;;
52642;SDS011;38531;53.296;6.614;2022-11-23T14:56:26;1.92;;;0.40;;
52642;SDS011;38531;53.296;6.614;2022-11-23T14:59:07;1.02;;;0.20;;
52642;SDS011;38531;53.296;6.614;2022-11-23T15:01:39;1.20;;;0.30;;
52642;SDS011;38531;53.296;6.614;2022-11-23T15:07:25;2.53;;;0.43;;
52642;SDS011;38531;53.296;6.614;2022-11-23T15:12:42;1.17;;;0.50;;
52642;SDS011;38531;53.296;6.614;2022-11-23T15:15:16;1.73;;;0.30;;
52642;SDS011;38531;53.296;6.614;2022-11-23T15:20:39;2.00;;;0.30;;
52642;SDS011;38531;53.296;6.614;2022-11-23T15:23:16;1.48;;;0.30;;
52642;SDS011;38531;53.296;6.614;2022-11-23T15:25:50;2.05;;;0.40;;
52642;SDS011;38531;53.296;6.614;2022-11-23T15:28:28;1.10;;;0.40;;
52642;SDS011;38531;53.296;6.614;2022-11-23T15:30:57;0.60;;;0.20;;
52642;SDS011;38531;53.296;6.614;2022-11-23T15:33:23;1.02;;;0.40;;
52642;SDS011;38531;53.296;6.614;2022-11-23T15:35:49;2.50;;;0.35;;
52642;SDS011;38531;53.296;6.614;2022-11-23T15:38:17;2.65;;;0.40;;
52642;SDS011;38531;53.296;6.614;2022-11-23T15:40:45;0.60;;;0.30;;
52642;SDS011;38531;53.296;6.614;2022-11-23T15:43:13;5.05;;;0.50;;
52642;SDS011;38531;53.296;6.614;2022-11-23T15:45:55;1.80;;;0.20;;
52642;SDS011;38531;53.296;6.614;2022-11-23T15:50:58;1.63;;;0.32;;
52642;SDS011;38531;53.296;6.614;2022-11-23T15:53:29;1.00;;;0.40;;
52642;SDS011;38531;53.296;6.614;2022-11-23T15:56:10;1.10;;;0.38;;
52642;SDS011;38531;53.296;6.614;2022-11-23T15:58:47;1.40;;;0.30;;
52642;SDS011;38531;53.296;6.614;2022-11-23T16:01:15;3.78;;;0.57;;
52642;SDS011;38531;53.296;6.614;2022-11-23T16:03:47;1.17;;;0.25;;
52642;SDS011;38531;53.296;6.614;2022-11-23T16:06:50;3.75;;;0.50;;
52642;SDS011;38531;53.296;6.614;2022-11-23T16:09:32;2.20;;;0.60;;
52642;SDS011;38531;53.296;6.614;2022-11-23T16:11:58;1.77;;;0.47;;
52642;SDS011;38531;53.296;6.614;2022-11-23T16:14:27;4.82;;;0.60;;
52642;SDS011;38531;53.296;6.614;2022-11-23T16:16:58;1.88;;;0.60;;
52642;SDS011;38531;53.296;6.614;2022-11-23T16:19:44;3.42;;;0.82;;
52642;SDS011;38531;53.296;6.614;2022-11-23T16:22:16;4.85;;;0.70;;
52642;SDS011;38531;53.296;6.614;2022-11-23T16:24:54;2.35;;;0.50;;
52642;SDS011;38531;53.296;6.614;2022-11-23T16:27:41;2.63;;;0.57;;
52642;SDS011;38531;53.296;6.614;2022-11-23T16:30:23;1.58;;;0.57;;
52642;SDS011;38531;53.296;6.614;2022-11-23T16:32:50;3.85;;;0.60;;
52642;SDS011;38531;53.296;6.614;2022-11-23T16:35:16;1.38;;;0.40;;
52642;SDS011;38531;53.296;6.614;2022-11-23T16:37:43;3.25;;;0.70;;
52642;SDS011;38531;53.296;6.614;2022-11-23T16:40:09;2.78;;;0.60;;
52642;SDS011;38531;53.296;6.614;2022-11-23T16:42:35;2.65;;;0.52;;
52642;SDS011;38531;53.296;6.614;2022-11-23T16:45:01;0.88;;;0.50;;
52642;SDS011;38531;53.296;6.614;2022-11-23T16:47:27;2.30;;;0.45;;
52642;SDS011;38531;53.296;6.614;2022-11-23T16:49:55;1.42;;;0.50;;
52642;SDS011;38531;53.296;6.614;2022-11-23T16:52:21;2.03;;;0.65;;
52642;SDS011;38531;53.296;6.614;2022-11-23T16:54:47;3.15;;;0.70;;
52642;SDS011;38531;53.296;6.614;2022-11-23T16:57:26;3.22;;;0.50;;
52642;SDS011;38531;53.296;6.614;2022-11-23T16:59:54;1.83;;;0.50;;
52642;SDS011;38531;53.296;6.614;2022-11-23T17:02:20;1.55;;;0.52;;
52642;SDS011;38531;53.296;6.614;2022-11-23T17:04:46;5.45;;;0.50;;
52642;SDS011;38531;53.296;6.614;2022-11-23T17:07:12;4.05;;;0.88;;